sensor_id;sensor_type;location;lat;lon;timestamp;P1;durP1;ratioP1;P2;durP2;ratioP2
30707;SDS011;17458;48.958;8.284;2022-10-26T00:01:10;6.63;;;2.90;;
30707;SDS011;17458;48.958;8.284;2022-10-26T00:03:56;5.55;;;3.17;;
30707;SDS011;17458;48.958;8.284;2022-10-26T00:06:40;8.02;;;3.60;;
30707;SDS011;17458;48.958;8.284;2022-10-26T00:09:24;13.85;;;3.70;;
30707;SDS011;17458;48.958;8.284;2022-10-26T00:12:09;11.57;;;3.15;;
30707;SDS011;17458;48.958;8.284;2022-10-26T00:14:52;3.55;;;2.58;;
30707;SDS011;17458;48.958;8.284;2022-10-26T00:17:37;12.00;;;3.72;;
30707;SDS011;17458;48.958;8.284;2022-10-26T00:20:21;11.00;;;3.13;;
30707;SDS011;17458;48.958;8.284;2022-10-26T00:23:05;12.25;;;3.08;;
30707;SDS011;17458;48.958;8.284;2022-10-26T00:25:55;11.88;;;5.47;;
30707;SDS011;17458;48.958;8.284;2022-10-26T00:28:39;6.53;;;2.88;;
30707;SDS011;17458;48.958;8.284;2022-10-26T00:31:24;10.88;;;2.92;;
30707;SDS011;17458;48.958;8.284;2022-10-26T00:34:08;7.10;;;3.38;;
30707;SDS011;17458;48.958;8.284;2022-10-26T00:36:53;7.07;;;2.88;;
30707;SDS011;17458;48.958;8.284;2022-10-26T00:39:37;14.00;;;3.58;;
30707;SDS011;17458;48.958;8.284;2022-10-26T00:42:21;9.88;;;2.70;;
30707;SDS011;17458;48.958;8.284;2022-10-26T00:48:24;5.50;;;3.78;;
30707;SDS011;17458;48.958;8.284;2022-10-26T00:51:19;9.95;;;2.78;;
30707;SDS011;17458;48.958;8.284;2022-10-26T00:54:13;13.68;;;2.97;;
30707;SDS011;17458;48.958;8.284;2022-10-26T00:57:03;8.10;;;3.60;;
30707;SDS011;17458;48.958;8.284;2022-10-26T00:59:48;18.02;;;3.65;;
30707;SDS011;17458;48.958;8.284;2022-10-26T01:02:34;3.55;;;2.80;;
30707;SDS011;17458;48.958;8.284;2022-10-26T01:05:18;8.75;;;3.08;;
30707;SDS011;17458;48.958;8.284;2022-10-26T01:08:03;12.68;;;3.22;;
30707;SDS011;17458;48.958;8.284;2022-10-26T01:10:47;11.82;;;2.95;;
30707;SDS011;17458;48.958;8.284;2022-10-26T01:13:31;9.75;;;3.30;;
30707;SDS011;17458;48.958;8.284;2022-10-26T01:23:07;11.18;;;4.00;;
30707;SDS011;17458;48.958;8.284;2022-10-26T01:32:09;8.65;;;4.40;;
30707;SDS011;17458;48.958;8.284;2022-10-26T01:35:07;12.27;;;4.90;;
30707;SDS011;17458;48.958;8.284;2022-10-26T01:37:58;6.65;;;4.57;;
30707;SDS011;17458;48.958;8.284;2022-10-26T01:40:54;12.70;;;5.38;;
30707;SDS011;17458;48.958;8.284;2022-10-26T01:43:49;19.65;;;7.50;;
30707;SDS011;17458;48.958;8.284;2022-10-26T01:46:42;9.65;;;4.75;;
30707;SDS011;17458;48.958;8.284;2022-10-26T01:49:34;10.73;;;4.22;;
30707;SDS011;17458;48.958;8.284;2022-10-26T01:52:22;7.88;;;3.40;;
30707;SDS011;17458;48.958;8.284;2022-10-26T01:55:36;6.40;;;3.08;;
30707;SDS011;17458;48.958;8.284;2022-10-26T02:04:26;9.77;;;4.03;;
30707;SDS011;17458;48.958;8.284;2022-10-26T02:13:38;14.25;;;4.57;;
30707;SDS011;17458;48.958;8.284;2022-10-26T02:16:37;4.15;;;3.53;;
30707;SDS011;17458;48.958;8.284;2022-10-26T02:19:42;15.18;;;4.22;;
30707;SDS011;17458;48.958;8.284;2022-10-26T02:22:36;13.45;;;3.67;;
30707;SDS011;17458;48.958;8.284;2022-10-26T02:25:30;12.90;;;4.20;;
30707;SDS011;17458;48.958;8.284;2022-10-26T02:28:17;14.68;;;6.47;;
30707;SDS011;17458;48.958;8.284;2022-10-26T02:31:05;8.10;;;4.28;;
30707;SDS011;17458;48.958;8.284;2022-10-26T02:33:50;9.20;;;3.97;;
30707;SDS011;17458;48.958;8.284;2022-10-26T02:36:37;13.20;;;3.83;;
30707;SDS011;17458;48.958;8.284;2022-10-26T02:39:27;7.45;;;3.80;;
30707;SDS011;17458;48.958;8.284;2022-10-26T02:42:15;13.30;;;3.97;;
30707;SDS011;17458;48.958;8.284;2022-10-26T02:45:02;10.05;;;4.00;;
30707;SDS011;17458;48.958;8.284;2022-10-26T02:47:53;10.02;;;3.28;;
30707;SDS011;17458;48.958;8.284;2022-10-26T02:50:52;9.45;;;3.80;;
30707;SDS011;17458;48.958;8.284;2022-10-26T02:53:58;13.35;;;3.40;;
30707;SDS011;17458;48.958;8.284;2022-10-26T02:56:53;13.85;;;4.38;;
30707;SDS011;17458;48.958;8.284;2022-10-26T02:59:43;6.80;;;3.95;;
30707;SDS011;17458;48.958;8.284;2022-10-26T03:02:30;7.20;;;3.40;;
30707;SDS011;17458;48.958;8.284;2022-10-26T03:05:17;9.55;;;3.55;;
30707;SDS011;17458;48.958;8.284;2022-10-26T03:08:04;12.23;;;3.33;;
30707;SDS011;17458;48.958;8.284;2022-10-26T03:10:48;17.42;;;3.85;;
30707;SDS011;17458;48.958;8.284;2022-10-26T03:13:32;11.73;;;4.30;;
30707;SDS011;17458;48.958;8.284;2022-10-26T03:16:16;17.60;;;3.80;;
30707;SDS011;17458;48.958;8.284;2022-10-26T03:19:00;14.73;;;3.60;;
30707;SDS011;17458;48.958;8.284;2022-10-26T03:21:44;5.80;;;3.58;;
30707;SDS011;17458;48.958;8.284;2022-10-26T03:24:28;10.93;;;3.78;;
30707;SDS011;17458;48.958;8.284;2022-10-26T03:27:13;12.55;;;3.53;;
30707;SDS011;17458;48.958;8.284;2022-10-26T03:29:57;7.65;;;3.60;;
30707;SDS011;17458;48.958;8.284;2022-10-26T03:32:41;14.98;;;4.97;;
30707;SDS011;17458;48.958;8.284;2022-10-26T03:35:25;12.48;;;3.75;;
30707;SDS011;17458;48.958;8.284;2022-10-26T03:38:09;5.60;;;3.83;;
30707;SDS011;17458;48.958;8.284;2022-10-26T03:40:53;5.72;;;3.47;;
30707;SDS011;17458;48.958;8.284;2022-10-26T03:43:37;12.25;;;4.35;;
30707;SDS011;17458;48.958;8.284;2022-10-26T03:46:21;7.25;;;3.40;;
30707;SDS011;17458;48.958;8.284;2022-10-26T03:49:05;11.63;;;3.70;;
30707;SDS011;17458;48.958;8.284;2022-10-26T03:51:49;6.00;;;3.13;;
30707;SDS011;17458;48.958;8.284;2022-10-26T03:54:33;6.43;;;3.28;;
30707;SDS011;17458;48.958;8.284;2022-10-26T03:57:17;12.60;;;4.50;;
30707;SDS011;17458;48.958;8.284;2022-10-26T04:00:01;7.32;;;3.47;;
30707;SDS011;17458;48.958;8.284;2022-10-26T04:02:56;19.05;;;4.03;;
30707;SDS011;17458;48.958;8.284;2022-10-26T04:05:42;9.50;;;3.45;;
30707;SDS011;17458;48.958;8.284;2022-10-26T04:08:26;15.75;;;4.53;;
30707;SDS011;17458;48.958;8.284;2022-10-26T04:11:10;12.98;;;3.40;;
30707;SDS011;17458;48.958;8.284;2022-10-26T04:13:54;7.72;;;3.97;;
30707;SDS011;17458;48.958;8.284;2022-10-26T04:16:38;6.30;;;3.40;;
30707;SDS011;17458;48.958;8.284;2022-10-26T04:19:22;11.13;;;3.63;;
30707;SDS011;17458;48.958;8.284;2022-10-26T04:22:06;9.73;;;3.92;;
30707;SDS011;17458;48.958;8.284;2022-10-26T04:24:50;12.98;;;5.55;;
30707;SDS011;17458;48.958;8.284;2022-10-26T04:27:34;7.57;;;4.15;;
30707;SDS011;17458;48.958;8.284;2022-10-26T04:30:18;7.38;;;3.92;;
30707;SDS011;17458;48.958;8.284;2022-10-26T04:33:03;13.07;;;4.45;;
30707;SDS011;17458;48.958;8.284;2022-10-26T04:35:48;10.63;;;4.28;;
30707;SDS011;17458;48.958;8.284;2022-10-26T04:38:32;10.23;;;4.10;;
30707;SDS011;17458;48.958;8.284;2022-10-26T04:41:16;7.68;;;4.10;;
30707;SDS011;17458;48.958;8.284;2022-10-26T04:44:00;10.52;;;3.83;;
30707;SDS011;17458;48.958;8.284;2022-10-26T04:46:44;11.50;;;4.18;;
30707;SDS011;17458;48.958;8.284;2022-10-26T04:49:28;15.68;;;6.30;;
30707;SDS011;17458;48.958;8.284;2022-10-26T04:52:12;16.45;;;5.28;;
30707;SDS011;17458;48.958;8.284;2022-10-26T04:54:56;10.23;;;3.83;;
30707;SDS011;17458;48.958;8.284;2022-10-26T04:57:42;16.20;;;4.15;;
30707;SDS011;17458;48.958;8.284;2022-10-26T05:00:27;6.70;;;3.50;;
30707;SDS011;17458;48.958;8.284;2022-10-26T05:03:12;8.93;;;4.97;;
30707;SDS011;17458;48.958;8.284;2022-10-26T05:05:57;8.70;;;4.20;;
30707;SDS011;17458;48.958;8.284;2022-10-26T05:08:42;12.30;;;4.25;;
30707;SDS011;17458;48.958;8.284;2022-10-26T05:11:26;15.50;;;5.65;;
30707;SDS011;17458;48.958;8.284;2022-10-26T05:14:10;10.02;;;4.35;;
30707;SDS011;17458;48.958;8.284;2022-10-26T05:16:55;6.47;;;4.78;;
30707;SDS011;17458;48.958;8.284;2022-10-26T05:19:40;15.25;;;5.70;;
30707;SDS011;17458;48.958;8.284;2022-10-26T05:22:24;10.60;;;5.70;;
30707;SDS011;17458;48.958;8.284;2022-10-26T05:25:08;19.42;;;5.80;;
30707;SDS011;17458;48.958;8.284;2022-10-26T05:27:59;13.55;;;5.90;;
30707;SDS011;17458;48.958;8.284;2022-10-26T05:30:44;10.85;;;5.32;;
30707;SDS011;17458;48.958;8.284;2022-10-26T05:33:28;13.00;;;6.32;;
30707;SDS011;17458;48.958;8.284;2022-10-26T05:36:12;15.93;;;6.10;;
30707;SDS011;17458;48.958;8.284;2022-10-26T05:38:57;14.82;;;6.38;;
30707;SDS011;17458;48.958;8.284;2022-10-26T05:41:41;13.57;;;6.20;;
30707;SDS011;17458;48.958;8.284;2022-10-26T05:44:25;7.72;;;4.75;;
30707;SDS011;17458;48.958;8.284;2022-10-26T05:47:10;14.55;;;5.75;;
30707;SDS011;17458;48.958;8.284;2022-10-26T05:49:54;18.35;;;6.03;;
30707;SDS011;17458;48.958;8.284;2022-10-26T05:52:39;8.60;;;5.13;;
30707;SDS011;17458;48.958;8.284;2022-10-26T05:55:23;9.82;;;5.93;;
30707;SDS011;17458;48.958;8.284;2022-10-26T05:58:08;12.32;;;5.43;;
30707;SDS011;17458;48.958;8.284;2022-10-26T06:01:09;12.40;;;6.00;;
30707;SDS011;17458;48.958;8.284;2022-10-26T06:06:56;12.68;;;6.28;;
30707;SDS011;17458;48.958;8.284;2022-10-26T06:09:42;12.35;;;5.32;;
30707;SDS011;17458;48.958;8.284;2022-10-26T06:12:26;23.13;;;6.22;;
30707;SDS011;17458;48.958;8.284;2022-10-26T06:15:18;9.52;;;5.15;;
30707;SDS011;17458;48.958;8.284;2022-10-26T06:18:09;17.48;;;5.95;;
30707;SDS011;17458;48.958;8.284;2022-10-26T06:27:15;12.73;;;5.72;;
30707;SDS011;17458;48.958;8.284;2022-10-26T06:30:09;16.65;;;6.10;;
30707;SDS011;17458;48.958;8.284;2022-10-26T06:32:54;14.27;;;7.10;;
30707;SDS011;17458;48.958;8.284;2022-10-26T06:35:43;11.65;;;6.15;;
30707;SDS011;17458;48.958;8.284;2022-10-26T06:38:42;12.77;;;6.60;;
30707;SDS011;17458;48.958;8.284;2022-10-26T06:41:29;14.77;;;8.35;;
30707;SDS011;17458;48.958;8.284;2022-10-26T06:44:19;12.00;;;6.07;;
30707;SDS011;17458;48.958;8.284;2022-10-26T06:47:11;14.77;;;6.95;;
30707;SDS011;17458;48.958;8.284;2022-10-26T06:53:35;10.88;;;5.88;;
30707;SDS011;17458;48.958;8.284;2022-10-26T06:56:24;13.88;;;5.07;;
30707;SDS011;17458;48.958;8.284;2022-10-26T06:59:12;13.90;;;5.57;;
30707;SDS011;17458;48.958;8.284;2022-10-26T07:02:01;8.90;;;5.05;;
30707;SDS011;17458;48.958;8.284;2022-10-26T07:04:45;18.92;;;4.47;;
30707;SDS011;17458;48.958;8.284;2022-10-26T07:07:29;12.45;;;5.22;;
30707;SDS011;17458;48.958;8.284;2022-10-26T07:10:14;9.25;;;4.57;;
30707;SDS011;17458;48.958;8.284;2022-10-26T07:12:58;8.82;;;4.43;;
30707;SDS011;17458;48.958;8.284;2022-10-26T07:15:42;11.02;;;4.78;;
30707;SDS011;17458;48.958;8.284;2022-10-26T07:18:27;7.10;;;4.75;;
30707;SDS011;17458;48.958;8.284;2022-10-26T07:21:11;11.75;;;5.88;;
30707;SDS011;17458;48.958;8.284;2022-10-26T07:23:55;13.95;;;5.75;;
30707;SDS011;17458;48.958;8.284;2022-10-26T07:26:39;17.75;;;5.80;;
30707;SDS011;17458;48.958;8.284;2022-10-26T07:29:24;15.38;;;4.68;;
30707;SDS011;17458;48.958;8.284;2022-10-26T07:32:09;8.55;;;5.30;;
30707;SDS011;17458;48.958;8.284;2022-10-26T07:34:53;12.95;;;6.82;;
30707;SDS011;17458;48.958;8.284;2022-10-26T07:37:37;9.88;;;5.65;;
30707;SDS011;17458;48.958;8.284;2022-10-26T07:40:21;16.95;;;6.43;;
30707;SDS011;17458;48.958;8.284;2022-10-26T07:43:05;12.10;;;5.80;;
30707;SDS011;17458;48.958;8.284;2022-10-26T07:45:49;10.55;;;5.20;;
30707;SDS011;17458;48.958;8.284;2022-10-26T07:48:34;12.10;;;4.78;;
30707;SDS011;17458;48.958;8.284;2022-10-26T07:51:18;10.65;;;4.57;;
30707;SDS011;17458;48.958;8.284;2022-10-26T07:54:02;7.68;;;4.70;;
30707;SDS011;17458;48.958;8.284;2022-10-26T07:56:49;11.38;;;5.13;;
30707;SDS011;17458;48.958;8.284;2022-10-26T07:59:34;16.60;;;4.93;;
30707;SDS011;17458;48.958;8.284;2022-10-26T08:02:18;9.35;;;4.10;;
30707;SDS011;17458;48.958;8.284;2022-10-26T08:05:02;9.60;;;4.68;;
30707;SDS011;17458;48.958;8.284;2022-10-26T08:07:47;11.20;;;4.55;;
30707;SDS011;17458;48.958;8.284;2022-10-26T08:10:31;11.20;;;5.03;;
30707;SDS011;17458;48.958;8.284;2022-10-26T08:13:14;11.07;;;4.45;;
30707;SDS011;17458;48.958;8.284;2022-10-26T08:16:00;12.10;;;4.28;;
30707;SDS011;17458;48.958;8.284;2022-10-26T08:18:46;15.73;;;4.30;;
30707;SDS011;17458;48.958;8.284;2022-10-26T08:21:31;10.07;;;4.85;;
30707;SDS011;17458;48.958;8.284;2022-10-26T08:24:15;8.82;;;4.35;;
30707;SDS011;17458;48.958;8.284;2022-10-26T08:26:59;7.00;;;3.70;;
30707;SDS011;17458;48.958;8.284;2022-10-26T08:29:43;13.02;;;4.82;;
30707;SDS011;17458;48.958;8.284;2022-10-26T08:32:27;8.07;;;4.25;;
30707;SDS011;17458;48.958;8.284;2022-10-26T08:35:11;12.13;;;4.07;;
30707;SDS011;17458;48.958;8.284;2022-10-26T08:37:55;9.77;;;3.75;;
30707;SDS011;17458;48.958;8.284;2022-10-26T08:40:40;12.95;;;3.67;;
30707;SDS011;17458;48.958;8.284;2022-10-26T08:43:27;12.52;;;3.17;;
30707;SDS011;17458;48.958;8.284;2022-10-26T08:46:19;10.63;;;3.55;;
30707;SDS011;17458;48.958;8.284;2022-10-26T08:49:21;5.95;;;3.33;;
30707;SDS011;17458;48.958;8.284;2022-10-26T08:52:13;3.45;;;2.45;;
30707;SDS011;17458;48.958;8.284;2022-10-26T08:55:01;6.82;;;3.22;;
30707;SDS011;17458;48.958;8.284;2022-10-26T08:57:46;11.18;;;4.28;;
30707;SDS011;17458;48.958;8.284;2022-10-26T09:00:32;7.40;;;3.25;;
30707;SDS011;17458;48.958;8.284;2022-10-26T09:03:16;5.30;;;2.38;;
30707;SDS011;17458;48.958;8.284;2022-10-26T09:12:11;7.80;;;2.70;;
30707;SDS011;17458;48.958;8.284;2022-10-26T09:15:19;4.80;;;2.25;;
30707;SDS011;17458;48.958;8.284;2022-10-26T09:18:30;10.30;;;3.13;;
30707;SDS011;17458;48.958;8.284;2022-10-26T09:21:32;4.22;;;2.20;;
30707;SDS011;17458;48.958;8.284;2022-10-26T09:24:33;8.02;;;2.58;;
30707;SDS011;17458;48.958;8.284;2022-10-26T09:27:32;6.65;;;2.33;;
30707;SDS011;17458;48.958;8.284;2022-10-26T09:30:20;6.18;;;3.15;;
30707;SDS011;17458;48.958;8.284;2022-10-26T09:33:09;6.13;;;2.85;;
30707;SDS011;17458;48.958;8.284;2022-10-26T09:36:02;9.82;;;2.97;;
30707;SDS011;17458;48.958;8.284;2022-10-26T09:42:40;7.18;;;2.15;;
30707;SDS011;17458;48.958;8.284;2022-10-26T09:45:31;10.27;;;2.78;;
30707;SDS011;17458;48.958;8.284;2022-10-26T09:51:52;4.65;;;1.95;;
30707;SDS011;17458;48.958;8.284;2022-10-26T09:54:36;6.88;;;2.58;;
30707;SDS011;17458;48.958;8.284;2022-10-26T09:57:20;8.18;;;2.53;;
30707;SDS011;17458;48.958;8.284;2022-10-26T10:00:05;8.23;;;2.58;;
30707;SDS011;17458;48.958;8.284;2022-10-26T10:02:50;8.02;;;2.13;;
30707;SDS011;17458;48.958;8.284;2022-10-26T10:05:36;10.35;;;2.95;;
30707;SDS011;17458;48.958;8.284;2022-10-26T10:08:26;7.53;;;2.58;;
30707;SDS011;17458;48.958;8.284;2022-10-26T10:11:11;9.57;;;2.40;;
30707;SDS011;17458;48.958;8.284;2022-10-26T10:13:57;13.85;;;2.00;;
30707;SDS011;17458;48.958;8.284;2022-10-26T10:19:39;9.75;;;4.05;;
30707;SDS011;17458;48.958;8.284;2022-10-26T10:22:24;4.50;;;2.42;;
30707;SDS011;17458;48.958;8.284;2022-10-26T10:25:20;6.32;;;2.88;;
30707;SDS011;17458;48.958;8.284;2022-10-26T10:28:22;12.15;;;2.65;;
30707;SDS011;17458;48.958;8.284;2022-10-26T10:31:18;6.45;;;3.35;;
30707;SDS011;17458;48.958;8.284;2022-10-26T10:34:16;4.72;;;2.30;;
30707;SDS011;17458;48.958;8.284;2022-10-26T10:37:00;9.32;;;3.35;;
30707;SDS011;17458;48.958;8.284;2022-10-26T10:39:44;10.50;;;2.28;;
30707;SDS011;17458;48.958;8.284;2022-10-26T10:42:32;6.35;;;2.55;;
30707;SDS011;17458;48.958;8.284;2022-10-26T10:45:19;8.18;;;2.45;;
30707;SDS011;17458;48.958;8.284;2022-10-26T10:50:59;5.45;;;2.25;;
30707;SDS011;17458;48.958;8.284;2022-10-26T10:53:49;17.45;;;2.83;;
30707;SDS011;17458;48.958;8.284;2022-10-26T10:56:41;7.30;;;2.35;;
30707;SDS011;17458;48.958;8.284;2022-10-26T11:02:47;9.23;;;2.17;;
30707;SDS011;17458;48.958;8.284;2022-10-26T11:06:18;7.82;;;2.35;;
30707;SDS011;17458;48.958;8.284;2022-10-26T11:09:01;7.22;;;1.90;;
30707;SDS011;17458;48.958;8.284;2022-10-26T11:11:54;10.82;;;2.25;;
30707;SDS011;17458;48.958;8.284;2022-10-26T11:14:44;11.00;;;2.90;;
30707;SDS011;17458;48.958;8.284;2022-10-26T11:17:33;13.52;;;3.47;;
30707;SDS011;17458;48.958;8.284;2022-10-26T11:20:28;13.25;;;3.50;;
30707;SDS011;17458;48.958;8.284;2022-10-26T11:23:18;8.48;;;3.92;;
30707;SDS011;17458;48.958;8.284;2022-10-26T11:26:18;14.10;;;4.60;;
30707;SDS011;17458;48.958;8.284;2022-10-26T11:29:15;4.65;;;2.38;;
30707;SDS011;17458;48.958;8.284;2022-10-26T11:32:04;6.55;;;2.17;;
30707;SDS011;17458;48.958;8.284;2022-10-26T11:35:00;10.07;;;1.80;;
30707;SDS011;17458;48.958;8.284;2022-10-26T11:37:54;7.95;;;3.08;;
30707;SDS011;17458;48.958;8.284;2022-10-26T11:43:43;5.57;;;2.13;;
30707;SDS011;17458;48.958;8.284;2022-10-26T11:46:37;9.43;;;3.55;;
30707;SDS011;17458;48.958;8.284;2022-10-26T11:49:28;10.57;;;2.67;;
30707;SDS011;17458;48.958;8.284;2022-10-26T11:55:01;12.30;;;2.35;;
30707;SDS011;17458;48.958;8.284;2022-10-26T11:57:47;8.07;;;2.20;;
30707;SDS011;17458;48.958;8.284;2022-10-26T12:00:33;9.23;;;2.63;;
30707;SDS011;17458;48.958;8.284;2022-10-26T12:03:24;5.60;;;2.17;;
30707;SDS011;17458;48.958;8.284;2022-10-26T12:06:13;6.03;;;2.55;;
30707;SDS011;17458;48.958;8.284;2022-10-26T12:09:03;9.20;;;2.20;;
30707;SDS011;17458;48.958;8.284;2022-10-26T12:11:55;7.28;;;2.40;;
30707;SDS011;17458;48.958;8.284;2022-10-26T12:14:58;7.95;;;2.05;;
30707;SDS011;17458;48.958;8.284;2022-10-26T12:21:26;11.55;;;2.47;;
30707;SDS011;17458;48.958;8.284;2022-10-26T12:27:28;13.00;;;2.00;;
30707;SDS011;17458;48.958;8.284;2022-10-26T12:30:33;5.65;;;2.10;;
30707;SDS011;17458;48.958;8.284;2022-10-26T12:33:26;5.75;;;1.52;;
30707;SDS011;17458;48.958;8.284;2022-10-26T12:39:38;6.47;;;2.13;;
30707;SDS011;17458;48.958;8.284;2022-10-26T12:45:14;13.57;;;3.53;;
30707;SDS011;17458;48.958;8.284;2022-10-26T12:48:02;15.50;;;3.47;;
30707;SDS011;17458;48.958;8.284;2022-10-26T12:50:48;7.97;;;3.30;;
30707;SDS011;17458;48.958;8.284;2022-10-26T12:53:32;8.15;;;2.55;;
30707;SDS011;17458;48.958;8.284;2022-10-26T12:56:17;4.80;;;1.80;;
30707;SDS011;17458;48.958;8.284;2022-10-26T13:04:51;4.38;;;2.00;;
30707;SDS011;17458;48.958;8.284;2022-10-26T13:08:02;7.38;;;2.55;;
30707;SDS011;17458;48.958;8.284;2022-10-26T13:11:00;5.70;;;2.17;;
30707;SDS011;17458;48.958;8.284;2022-10-26T13:13:53;8.63;;;3.33;;
30707;SDS011;17458;48.958;8.284;2022-10-26T13:16:40;6.43;;;2.08;;
30707;SDS011;17458;48.958;8.284;2022-10-26T13:19:31;10.23;;;2.20;;
30707;SDS011;17458;48.958;8.284;2022-10-26T13:22:25;7.50;;;1.85;;
30707;SDS011;17458;48.958;8.284;2022-10-26T13:25:17;6.47;;;2.75;;
30707;SDS011;17458;48.958;8.284;2022-10-26T13:34:17;5.40;;;2.05;;
30707;SDS011;17458;48.958;8.284;2022-10-26T13:39:50;4.60;;;1.63;;
30707;SDS011;17458;48.958;8.284;2022-10-26T13:42:41;7.70;;;1.55;;
30707;SDS011;17458;48.958;8.284;2022-10-26T13:45:31;6.45;;;2.80;;
30707;SDS011;17458;48.958;8.284;2022-10-26T13:48:38;7.05;;;1.75;;
30707;SDS011;17458;48.958;8.284;2022-10-26T13:51:25;6.90;;;2.00;;
30707;SDS011;17458;48.958;8.284;2022-10-26T13:54:38;6.68;;;1.70;;
30707;SDS011;17458;48.958;8.284;2022-10-26T13:57:34;5.82;;;1.90;;
30707;SDS011;17458;48.958;8.284;2022-10-26T14:00:22;4.60;;;2.08;;
30707;SDS011;17458;48.958;8.284;2022-10-26T14:03:13;7.82;;;2.25;;
30707;SDS011;17458;48.958;8.284;2022-10-26T14:06:05;7.60;;;2.30;;
30707;SDS011;17458;48.958;8.284;2022-10-26T14:08:56;6.90;;;1.70;;
30707;SDS011;17458;48.958;8.284;2022-10-26T14:11:46;9.98;;;2.08;;
30707;SDS011;17458;48.958;8.284;2022-10-26T14:14:40;7.55;;;2.10;;
30707;SDS011;17458;48.958;8.284;2022-10-26T14:17:25;12.52;;;2.47;;
30707;SDS011;17458;48.958;8.284;2022-10-26T14:20:17;8.75;;;2.38;;
30707;SDS011;17458;48.958;8.284;2022-10-26T14:23:02;8.95;;;2.28;;
30707;SDS011;17458;48.958;8.284;2022-10-26T14:25:47;9.90;;;2.92;;
30707;SDS011;17458;48.958;8.284;2022-10-26T14:28:37;9.02;;;2.45;;
30707;SDS011;17458;48.958;8.284;2022-10-26T14:31:31;15.07;;;2.03;;
30707;SDS011;17458;48.958;8.284;2022-10-26T14:34:19;7.80;;;3.10;;
30707;SDS011;17458;48.958;8.284;2022-10-26T14:37:05;8.57;;;2.55;;
30707;SDS011;17458;48.958;8.284;2022-10-26T14:39:52;8.05;;;2.60;;
30707;SDS011;17458;48.958;8.284;2022-10-26T14:42:44;7.05;;;2.60;;
30707;SDS011;17458;48.958;8.284;2022-10-26T14:45:43;13.20;;;2.60;;
30707;SDS011;17458;48.958;8.284;2022-10-26T14:48:55;8.70;;;2.65;;
30707;SDS011;17458;48.958;8.284;2022-10-26T14:51:47;5.80;;;2.22;;
30707;SDS011;17458;48.958;8.284;2022-10-26T14:54:54;9.50;;;2.60;;
30707;SDS011;17458;48.958;8.284;2022-10-26T14:58:13;8.82;;;2.38;;
30707;SDS011;17458;48.958;8.284;2022-10-26T15:01:15;12.15;;;3.35;;
30707;SDS011;17458;48.958;8.284;2022-10-26T15:04:58;8.98;;;1.67;;
30707;SDS011;17458;48.958;8.284;2022-10-26T15:07:46;5.53;;;2.20;;
30707;SDS011;17458;48.958;8.284;2022-10-26T15:13:56;6.18;;;2.30;;
30707;SDS011;17458;48.958;8.284;2022-10-26T15:29:35;11.30;;;2.90;;
30707;SDS011;17458;48.958;8.284;2022-10-26T15:33:17;8.75;;;3.13;;
30707;SDS011;17458;48.958;8.284;2022-10-26T15:36:28;8.57;;;2.85;;
30707;SDS011;17458;48.958;8.284;2022-10-26T15:39:37;9.43;;;4.20;;
30707;SDS011;17458;48.958;8.284;2022-10-26T15:46:33;8.38;;;3.35;;
30707;SDS011;17458;48.958;8.284;2022-10-26T15:49:29;8.05;;;2.97;;
30707;SDS011;17458;48.958;8.284;2022-10-26T15:52:13;8.73;;;4.28;;
30707;SDS011;17458;48.958;8.284;2022-10-26T15:54:57;14.93;;;7.15;;
30707;SDS011;17458;48.958;8.284;2022-10-26T15:57:41;16.77;;;4.40;;
30707;SDS011;17458;48.958;8.284;2022-10-26T16:00:26;12.80;;;4.82;;
30707;SDS011;17458;48.958;8.284;2022-10-26T16:03:11;19.15;;;4.72;;
30707;SDS011;17458;48.958;8.284;2022-10-26T16:05:59;15.65;;;4.20;;
30707;SDS011;17458;48.958;8.284;2022-10-26T16:08:48;13.40;;;4.55;;
30707;SDS011;17458;48.958;8.284;2022-10-26T16:11:33;13.95;;;5.10;;
30707;SDS011;17458;48.958;8.284;2022-10-26T16:14:18;17.58;;;5.05;;
30707;SDS011;17458;48.958;8.284;2022-10-26T16:17:02;16.92;;;3.88;;
30707;SDS011;17458;48.958;8.284;2022-10-26T16:19:47;30.38;;;11.45;;
30707;SDS011;17458;48.958;8.284;2022-10-26T16:22:31;12.73;;;5.97;;
30707;SDS011;17458;48.958;8.284;2022-10-26T16:25:16;14.20;;;5.18;;
30707;SDS011;17458;48.958;8.284;2022-10-26T16:28:02;18.83;;;4.05;;
30707;SDS011;17458;48.958;8.284;2022-10-26T16:30:46;9.20;;;4.18;;
30707;SDS011;17458;48.958;8.284;2022-10-26T16:33:30;15.82;;;4.90;;
30707;SDS011;17458;48.958;8.284;2022-10-26T16:36:14;10.70;;;4.25;;
30707;SDS011;17458;48.958;8.284;2022-10-26T16:38:59;27.25;;;10.48;;
30707;SDS011;17458;48.958;8.284;2022-10-26T16:41:43;12.25;;;3.85;;
30707;SDS011;17458;48.958;8.284;2022-10-26T16:44:28;13.85;;;6.38;;
30707;SDS011;17458;48.958;8.284;2022-10-26T16:47:11;11.32;;;5.10;;
30707;SDS011;17458;48.958;8.284;2022-10-26T16:49:55;19.40;;;5.30;;
30707;SDS011;17458;48.958;8.284;2022-10-26T16:52:39;11.98;;;4.28;;
30707;SDS011;17458;48.958;8.284;2022-10-26T16:55:24;10.82;;;3.97;;
30707;SDS011;17458;48.958;8.284;2022-10-26T16:58:08;16.67;;;8.82;;
30707;SDS011;17458;48.958;8.284;2022-10-26T17:00:53;14.35;;;3.70;;
30707;SDS011;17458;48.958;8.284;2022-10-26T17:03:38;20.33;;;10.23;;
30707;SDS011;17458;48.958;8.284;2022-10-26T17:06:22;15.65;;;5.25;;
30707;SDS011;17458;48.958;8.284;2022-10-26T17:09:06;14.20;;;4.68;;
30707;SDS011;17458;48.958;8.284;2022-10-26T17:11:50;12.82;;;4.20;;
30707;SDS011;17458;48.958;8.284;2022-10-26T17:14:36;13.85;;;4.80;;
30707;SDS011;17458;48.958;8.284;2022-10-26T17:17:20;14.45;;;6.20;;
30707;SDS011;17458;48.958;8.284;2022-10-26T17:20:04;15.38;;;5.50;;
30707;SDS011;17458;48.958;8.284;2022-10-26T17:22:49;10.93;;;3.97;;
30707;SDS011;17458;48.958;8.284;2022-10-26T17:25:33;16.85;;;4.85;;
30707;SDS011;17458;48.958;8.284;2022-10-26T17:28:19;22.92;;;6.35;;
30707;SDS011;17458;48.958;8.284;2022-10-26T17:31:11;26.55;;;7.60;;
30707;SDS011;17458;48.958;8.284;2022-10-26T17:33:56;17.13;;;5.82;;
30707;SDS011;17458;48.958;8.284;2022-10-26T17:36:41;12.32;;;5.43;;
30707;SDS011;17458;48.958;8.284;2022-10-26T17:39:25;21.10;;;5.43;;
30707;SDS011;17458;48.958;8.284;2022-10-26T17:42:09;11.77;;;5.18;;
30707;SDS011;17458;48.958;8.284;2022-10-26T17:44:53;12.40;;;6.57;;
30707;SDS011;17458;48.958;8.284;2022-10-26T17:47:37;8.52;;;4.15;;
30707;SDS011;17458;48.958;8.284;2022-10-26T17:50:21;15.27;;;3.90;;
30707;SDS011;17458;48.958;8.284;2022-10-26T17:53:05;11.45;;;3.70;;
30707;SDS011;17458;48.958;8.284;2022-10-26T17:55:58;13.80;;;3.90;;
30707;SDS011;17458;48.958;8.284;2022-10-26T17:58:49;10.05;;;4.10;;
30707;SDS011;17458;48.958;8.284;2022-10-26T18:01:37;17.85;;;5.38;;
30707;SDS011;17458;48.958;8.284;2022-10-26T18:04:21;23.58;;;8.57;;
30707;SDS011;17458;48.958;8.284;2022-10-26T18:07:05;14.07;;;5.35;;
30707;SDS011;17458;48.958;8.284;2022-10-26T18:09:49;23.08;;;6.13;;
30707;SDS011;17458;48.958;8.284;2022-10-26T18:12:33;41.63;;;15.38;;
30707;SDS011;17458;48.958;8.284;2022-10-26T18:15:17;21.60;;;8.05;;
30707;SDS011;17458;48.958;8.284;2022-10-26T18:18:01;13.15;;;3.92;;
30707;SDS011;17458;48.958;8.284;2022-10-26T18:20:45;12.75;;;4.13;;
30707;SDS011;17458;48.958;8.284;2022-10-26T18:23:29;10.70;;;3.53;;
30707;SDS011;17458;48.958;8.284;2022-10-26T18:26:17;9.60;;;4.30;;
30707;SDS011;17458;48.958;8.284;2022-10-26T18:29:05;8.10;;;4.28;;
30707;SDS011;17458;48.958;8.284;2022-10-26T18:31:49;14.45;;;4.95;;
30707;SDS011;17458;48.958;8.284;2022-10-26T18:34:33;17.20;;;5.10;;
30707;SDS011;17458;48.958;8.284;2022-10-26T18:37:17;19.38;;;7.20;;
30707;SDS011;17458;48.958;8.284;2022-10-26T18:40:01;18.00;;;4.05;;
30707;SDS011;17458;48.958;8.284;2022-10-26T18:42:46;15.50;;;4.05;;
30707;SDS011;17458;48.958;8.284;2022-10-26T18:45:30;12.60;;;5.10;;